Meteo Giornale » Osservazioni meteo Italia » Bari-Palese Macchie

ore: 10:50 - Osservazioni Meteo Bari-Palese Macchie
Lat. 41° 8' N Lon. 16° 47' E Alt. 34 metri s.l.m.

sereno Europe/Rome

17 °C

Sereno

Temp. 24 Ore

10 °C

23 °C

Est

13 Km/h

Dew point 11 °C

Umidità 67 %

Visibilità  8 Km

Il sole sorge alle ore 05:48

Il sole tramonta alle ore 18:09

Data e Ora Cielo e Fenomeni T °C DP °C Um. % Pres. hPa Vis. km Vento km/h
Oggi h: 10:50 sereno Sereno 17 11 67 1018 8 E 13
Oggi h: 10:20 sereno Sereno 18 11 63 1018 8 E/NE 11.1
Oggi h: 09:50 sereno Sereno 18 10 59 1018 8 E/NE 9.3
Oggi h: 09:20 sereno Sereno 18 10 59 1018 8 N 3.7
Oggi h: 08:50 sereno Sereno 18 9 55 1018 8 N 3.7
Oggi h: 08:20 sereno Sereno 16 9 63 1017 10 N 0
Oggi h: 07:50 sereno Sereno 14 8 67 1017 10 N 3.7
Oggi h: 07:20 sereno Sereno 11 7 76 1017 10 SO 7.4
Oggi h: 06:50 sereno Sereno 10 7 81 1016 10 SO 11.1
Oggi h: 06:20 sereno Sereno 10 7 81 1016 10 SO 11.1
Oggi h: 05:50 sereno Sereno 10 5 71 1016 10 O/SO 9.3
Oggi h: 05:20 sereno Sereno 10 5 71 1015 10 S/SO 9.3
Oggi h: 04:50 sereno Sereno 10 5 71 1015 10 SO 11.1
Oggi h: 04:20 sereno Sereno 10 5 71 1015 10 SO 11.1
Oggi h: 03:50 sereno Sereno 11 5 66 1015 10 SO 9.3
Oggi h: 03:20 sereno Sereno 11 5 66 1015 10 SO 9.3
Oggi h: 02:50 sereno Sereno 11 8 81 1015 10 N 3.7
Oggi h: 02:20 sereno Sereno 11 8 81 1015 10 N 3.7
Oggi h: 01:50 sereno Sereno 11 8 81 1015 10 SO 11.1
Oggi h: 01:20 sereno Sereno 12 9 81 1015 10 SO 11.1
Oggi h: 00:50 sereno Sereno 12 9 81 1015 10 SO 11.1
Oggi h: 00:20 sereno Sereno 12 8 76 1015 10 SO 11.1
Ieri h: 23:50 sereno Sereno 11 7 76 1015 10 N 5.5
Ieri h: 23:20 sereno Sereno 12 7 71 1015 10 N 5.5
Ieri h: 22:50 sereno Sereno 12 7 71 1015 10 N 5.5
Ieri h: 22:20 sereno Sereno 12 7 71 1015 10 N 3.7
Ieri h: 21:50 sereno Sereno 13 7 66 1015 10 N 5.5
Ieri h: 21:20 sereno Sereno 13 7 66 1015 10 N 0
Ieri h: 20:50 sereno Sereno 15 7 58 1015 10 N 5.5
Ieri h: 20:20 sereno Sereno 16 7 55 1014 10 S 7.4
Ieri h: 19:50 sereno Sereno 17 7 51 1014 10 S 7.4
Ieri h: 19:20 sereno Sereno 18 7 48 1014 10 S/SO 9.3
Ieri h: 18:50 sereno Sereno 17 8 55 1014 10 N 5.5
Ieri h: 18:20 sereno Sereno 20 8 45 1013 9 S/SO 9.3
Ieri h: 17:50 sereno Sereno 21 8 43 1013 9 S 9.3
Ieri h: 17:20 sereno Sereno 22 7 37 1013 9 S 11.1
Ieri h: 16:50 sereno Sereno 23 7 35 1012 9 S/SE 9.3
Ieri h: 16:20 sereno Sereno 22 21 94 1012 9 E/SE 14.8
Ieri h: 15:50 sereno Sereno 22 11 49 1012 9 E 16.7
Ieri h: 15:20 sereno Sereno 21 10 49 1012 9 E 16.7
Ieri h: 14:50 sereno Sereno 21 11 52 1012 10 E 20.3
Ieri h: 14:20 sereno Sereno 20 12 59 1012 10 E 18.5
Ieri h: 13:50 sereno Sereno 18 13 72 1012 10 E 18.5
Ieri h: 13:20 sereno Sereno 18 12 67 1013 10 E 16.7
Ieri h: 12:50 sereno Sereno 19 10 55 1013 10 E 16.7
Ieri h: 12:20 sereno Sereno 19 10 55 1013 10 E 16.7
Ieri h: 11:50 sereno Sereno 19 10 55 1013 10 E 13
Ieri h: 11:20 sereno Sereno 18 11 63 1013 10 E 13
Ieri h: 10:50 sereno Sereno 17 10 63 1013 10 E 16.7